sensor_id;sensor_type;location;lat;lon;timestamp;temperature;humidity
15172;DHT22;7686;52.184;9.280;2023-02-12T00:01:57;26.70;33.80
15172;DHT22;7686;52.184;9.280;2023-02-12T00:04:24;26.80;33.80
15172;DHT22;7686;52.184;9.280;2023-02-12T00:06:51;26.80;33.70
15172;DHT22;7686;52.184;9.280;2023-02-12T00:09:17;26.70;33.80
15172;DHT22;7686;52.184;9.280;2023-02-12T00:11:44;26.70;33.70
15172;DHT22;7686;52.184;9.280;2023-02-12T00:14:11;26.70;33.70
15172;DHT22;7686;52.184;9.280;2023-02-12T00:16:37;26.70;33.70
15172;DHT22;7686;52.184;9.280;2023-02-12T00:19:04;26.70;33.70
15172;DHT22;7686;52.184;9.280;2023-02-12T00:21:31;26.70;33.70
15172;DHT22;7686;52.184;9.280;2023-02-12T00:23:57;26.70;33.70
15172;DHT22;7686;52.184;9.280;2023-02-12T00:26:24;26.70;33.70
15172;DHT22;7686;52.184;9.280;2023-02-12T00:28:51;26.70;33.70
15172;DHT22;7686;52.184;9.280;2023-02-12T00:31:21;26.70;33.70
15172;DHT22;7686;52.184;9.280;2023-02-12T00:33:48;26.70;33.70
15172;DHT22;7686;52.184;9.280;2023-02-12T00:36:19;26.70;33.70
15172;DHT22;7686;52.184;9.280;2023-02-12T00:38:47;26.60;33.60
15172;DHT22;7686;52.184;9.280;2023-02-12T00:41:14;26.70;33.70
15172;DHT22;7686;52.184;9.280;2023-02-12T00:43:41;26.70;33.70
15172;DHT22;7686;52.184;9.280;2023-02-12T00:46:08;26.70;33.70
15172;DHT22;7686;52.184;9.280;2023-02-12T00:48:35;26.70;33.70
15172;DHT22;7686;52.184;9.280;2023-02-12T00:51:03;26.70;33.70
15172;DHT22;7686;52.184;9.280;2023-02-12T00:53:30;26.70;33.70
15172;DHT22;7686;52.184;9.280;2023-02-12T00:55:57;26.70;33.70
15172;DHT22;7686;52.184;9.280;2023-02-12T00:58:24;26.70;33.70
15172;DHT22;7686;52.184;9.280;2023-02-12T01:00:51;26.70;33.70
15172;DHT22;7686;52.184;9.280;2023-02-12T01:03:17;26.70;33.70
15172;DHT22;7686;52.184;9.280;2023-02-12T01:05:44;26.70;33.70
15172;DHT22;7686;52.184;9.280;2023-02-12T01:08:12;26.70;33.70
15172;DHT22;7686;52.184;9.280;2023-02-12T01:10:40;26.70;33.70
15172;DHT22;7686;52.184;9.280;2023-02-12T01:13:06;26.70;33.70
15172;DHT22;7686;52.184;9.280;2023-02-12T01:15:33;26.70;33.70
15172;DHT22;7686;52.184;9.280;2023-02-12T01:18:00;26.70;33.70
15172;DHT22;7686;52.184;9.280;2023-02-12T01:20:27;26.70;33.70
15172;DHT22;7686;52.184;9.280;2023-02-12T01:22:54;26.60;33.60
15172;DHT22;7686;52.184;9.280;2023-02-12T01:25:20;26.60;33.60
15172;DHT22;7686;52.184;9.280;2023-02-12T01:27:47;26.60;33.60
15172;DHT22;7686;52.184;9.280;2023-02-12T01:30:14;26.70;33.70
15172;DHT22;7686;52.184;9.280;2023-02-12T01:32:41;26.60;33.60
15172;DHT22;7686;52.184;9.280;2023-02-12T01:35:09;26.60;33.60
15172;DHT22;7686;52.184;9.280;2023-02-12T01:37:36;26.60;33.60
15172;DHT22;7686;52.184;9.280;2023-02-12T01:40:04;26.60;33.60
15172;DHT22;7686;52.184;9.280;2023-02-12T01:42:31;26.60;33.60
15172;DHT22;7686;52.184;9.280;2023-02-12T01:47:41;26.60;33.60
15172;DHT22;7686;52.184;9.280;2023-02-12T01:50:12;26.70;33.70
15172;DHT22;7686;52.184;9.280;2023-02-12T01:52:41;26.60;33.60
15172;DHT22;7686;52.184;9.280;2023-02-12T01:55:09;26.70;33.70
15172;DHT22;7686;52.184;9.280;2023-02-12T01:57:40;26.60;33.60
15172;DHT22;7686;52.184;9.280;2023-02-12T02:00:12;26.60;33.60
15172;DHT22;7686;52.184;9.280;2023-02-12T02:02:43;26.60;33.70
15172;DHT22;7686;52.184;9.280;2023-02-12T02:05:12;26.60;33.60
15172;DHT22;7686;52.184;9.280;2023-02-12T02:07:42;26.60;33.60
15172;DHT22;7686;52.184;9.280;2023-02-12T02:10:09;26.60;33.60
15172;DHT22;7686;52.184;9.280;2023-02-12T02:12:37;26.60;33.60
15172;DHT22;7686;52.184;9.280;2023-02-12T02:15:23;26.60;33.60
15172;DHT22;7686;52.184;9.280;2023-02-12T02:20:49;26.60;33.70
15172;DHT22;7686;52.184;9.280;2023-02-12T02:31:43;26.60;33.70
15172;DHT22;7686;52.184;9.280;2023-02-12T02:37:30;26.50;33.80
15172;DHT22;7686;52.184;9.280;2023-02-12T02:40:10;26.60;33.80
15172;DHT22;7686;52.184;9.280;2023-02-12T02:42:42;26.60;33.80
15172;DHT22;7686;52.184;9.280;2023-02-12T02:45:18;26.50;33.70
15172;DHT22;7686;52.184;9.280;2023-02-12T02:48:02;26.50;33.70
15172;DHT22;7686;52.184;9.280;2023-02-12T02:50:31;26.50;33.80
15172;DHT22;7686;52.184;9.280;2023-02-12T02:53:10;26.60;33.70
15172;DHT22;7686;52.184;9.280;2023-02-12T02:55:43;26.50;33.70
15172;DHT22;7686;52.184;9.280;2023-02-12T02:58:16;26.50;33.70
15172;DHT22;7686;52.184;9.280;2023-02-12T03:01:05;26.60;33.80
15172;DHT22;7686;52.184;9.280;2023-02-12T03:06:40;26.50;33.80
15172;DHT22;7686;52.184;9.280;2023-02-12T03:09:18;26.50;33.80
15172;DHT22;7686;52.184;9.280;2023-02-12T03:11:47;26.50;33.70
15172;DHT22;7686;52.184;9.280;2023-02-12T03:14:28;26.50;33.80
15172;DHT22;7686;52.184;9.280;2023-02-12T03:17:04;26.50;33.80
15172;DHT22;7686;52.184;9.280;2023-02-12T03:19:35;26.50;33.70
15172;DHT22;7686;52.184;9.280;2023-02-12T03:22:10;26.50;33.80
15172;DHT22;7686;52.184;9.280;2023-02-12T03:24:44;26.50;33.80
15172;DHT22;7686;52.184;9.280;2023-02-12T03:27:29;26.50;33.80
15172;DHT22;7686;52.184;9.280;2023-02-12T03:29:57;26.50;33.80
15172;DHT22;7686;52.184;9.280;2023-02-12T03:35:52;26.50;33.90
15172;DHT22;7686;52.184;9.280;2023-02-12T03:38:37;26.50;33.80
15172;DHT22;7686;52.184;9.280;2023-02-12T03:41:10;26.50;33.80
15172;DHT22;7686;52.184;9.280;2023-02-12T03:43:51;26.50;33.80
15172;DHT22;7686;52.184;9.280;2023-02-12T03:46:40;26.50;33.80
15172;DHT22;7686;52.184;9.280;2023-02-12T03:49:22;26.50;33.80
15172;DHT22;7686;52.184;9.280;2023-02-12T03:51:50;26.50;33.80
15172;DHT22;7686;52.184;9.280;2023-02-12T03:54:18;26.50;33.80
15172;DHT22;7686;52.184;9.280;2023-02-12T03:56:56;26.50;33.80
15172;DHT22;7686;52.184;9.280;2023-02-12T03:59:25;26.40;33.80
15172;DHT22;7686;52.184;9.280;2023-02-12T04:01:53;26.50;33.90
15172;DHT22;7686;52.184;9.280;2023-02-12T04:04:22;26.50;33.80
15172;DHT22;7686;52.184;9.280;2023-02-12T04:06:50;26.40;33.80
15172;DHT22;7686;52.184;9.280;2023-02-12T04:09:17;26.40;33.80
15172;DHT22;7686;52.184;9.280;2023-02-12T04:18:18;26.40;33.80
15172;DHT22;7686;52.184;9.280;2023-02-12T04:23:39;26.40;33.90
15172;DHT22;7686;52.184;9.280;2023-02-12T04:26:11;26.40;33.80
15172;DHT22;7686;52.184;9.280;2023-02-12T04:31:33;26.40;33.90
15172;DHT22;7686;52.184;9.280;2023-02-12T04:37:01;26.40;33.90
15172;DHT22;7686;52.184;9.280;2023-02-12T04:39:32;26.50;33.90
15172;DHT22;7686;52.184;9.280;2023-02-12T04:42:00;26.40;33.90
15172;DHT22;7686;52.184;9.280;2023-02-12T04:44:33;26.40;33.90
15172;DHT22;7686;52.184;9.280;2023-02-12T04:46:59;26.50;33.90
15172;DHT22;7686;52.184;9.280;2023-02-12T04:49:26;26.50;34.00
15172;DHT22;7686;52.184;9.280;2023-02-12T04:51:53;26.60;34.00
15172;DHT22;7686;52.184;9.280;2023-02-12T04:54:21;26.40;33.90
15172;DHT22;7686;52.184;9.280;2023-02-12T04:56:48;26.50;34.00
15172;DHT22;7686;52.184;9.280;2023-02-12T04:59:15;26.40;33.90
15172;DHT22;7686;52.184;9.280;2023-02-12T05:01:43;26.50;33.90
15172;DHT22;7686;52.184;9.280;2023-02-12T05:04:15;26.50;33.90
15172;DHT22;7686;52.184;9.280;2023-02-12T05:06:43;26.40;33.90
15172;DHT22;7686;52.184;9.280;2023-02-12T05:09:16;26.40;33.80
15172;DHT22;7686;52.184;9.280;2023-02-12T05:11:43;26.40;33.90
15172;DHT22;7686;52.184;9.280;2023-02-12T05:14:10;26.40;33.90
15172;DHT22;7686;52.184;9.280;2023-02-12T05:16:37;26.40;33.80
15172;DHT22;7686;52.184;9.280;2023-02-12T05:19:04;26.40;33.80
15172;DHT22;7686;52.184;9.280;2023-02-12T05:21:31;26.40;34.50
15172;DHT22;7686;52.184;9.280;2023-02-12T05:23:57;26.40;33.80
15172;DHT22;7686;52.184;9.280;2023-02-12T05:26:24;26.40;33.90
15172;DHT22;7686;52.184;9.280;2023-02-12T05:28:50;26.40;33.80
15172;DHT22;7686;52.184;9.280;2023-02-12T05:31:18;26.40;33.90
15172;DHT22;7686;52.184;9.280;2023-02-12T05:33:48;26.40;33.90
15172;DHT22;7686;52.184;9.280;2023-02-12T05:36:17;26.40;33.90
15172;DHT22;7686;52.184;9.280;2023-02-12T05:38:45;26.40;33.90
15172;DHT22;7686;52.184;9.280;2023-02-12T05:41:17;26.40;33.90
15172;DHT22;7686;52.184;9.280;2023-02-12T05:43:45;26.40;33.80
15172;DHT22;7686;52.184;9.280;2023-02-12T05:46:16;26.40;33.80
15172;DHT22;7686;52.184;9.280;2023-02-12T05:48:43;26.40;33.80
15172;DHT22;7686;52.184;9.280;2023-02-12T05:51:11;26.40;33.90
15172;DHT22;7686;52.184;9.280;2023-02-12T05:53:39;26.40;33.90
15172;DHT22;7686;52.184;9.280;2023-02-12T05:56:12;26.40;33.90
15172;DHT22;7686;52.184;9.280;2023-02-12T05:58:42;26.40;33.90
15172;DHT22;7686;52.184;9.280;2023-02-12T06:01:18;26.40;33.90
15172;DHT22;7686;52.184;9.280;2023-02-12T06:03:45;26.40;33.90
15172;DHT22;7686;52.184;9.280;2023-02-12T06:06:12;26.40;33.90
15172;DHT22;7686;52.184;9.280;2023-02-12T06:08:39;26.40;34.00
15172;DHT22;7686;52.184;9.280;2023-02-12T06:11:09;26.40;33.90
15172;DHT22;7686;52.184;9.280;2023-02-12T06:13:36;26.40;33.90
15172;DHT22;7686;52.184;9.280;2023-02-12T06:16:02;26.40;33.90
15172;DHT22;7686;52.184;9.280;2023-02-12T06:18:30;26.40;33.90
15172;DHT22;7686;52.184;9.280;2023-02-12T06:20:56;26.40;33.90
15172;DHT22;7686;52.184;9.280;2023-02-12T06:23:23;26.40;33.90
15172;DHT22;7686;52.184;9.280;2023-02-12T06:25:54;26.30;33.90
15172;DHT22;7686;52.184;9.280;2023-02-12T06:28:22;26.40;34.70
15172;DHT22;7686;52.184;9.280;2023-02-12T06:30:49;26.40;33.90
15172;DHT22;7686;52.184;9.280;2023-02-12T06:33:16;26.40;33.90
15172;DHT22;7686;52.184;9.280;2023-02-12T06:35:42;26.40;33.90
15172;DHT22;7686;52.184;9.280;2023-02-12T06:38:09;26.40;34.00
15172;DHT22;7686;52.184;9.280;2023-02-12T06:40:36;26.40;34.00
15172;DHT22;7686;52.184;9.280;2023-02-12T06:43:02;26.40;34.00
15172;DHT22;7686;52.184;9.280;2023-02-12T06:45:29;26.40;34.00
15172;DHT22;7686;52.184;9.280;2023-02-12T06:47:55;26.40;34.00
15172;DHT22;7686;52.184;9.280;2023-02-12T06:50:22;26.50;34.00
15172;DHT22;7686;52.184;9.280;2023-02-12T06:52:49;26.40;34.00
15172;DHT22;7686;52.184;9.280;2023-02-12T06:55:16;26.40;34.00
15172;DHT22;7686;52.184;9.280;2023-02-12T06:57:42;26.40;34.00
15172;DHT22;7686;52.184;9.280;2023-02-12T07:00:10;26.40;34.00
15172;DHT22;7686;52.184;9.280;2023-02-12T07:02:37;26.40;34.00
15172;DHT22;7686;52.184;9.280;2023-02-12T07:05:04;26.40;34.00
15172;DHT22;7686;52.184;9.280;2023-02-12T07:07:31;26.40;34.00
15172;DHT22;7686;52.184;9.280;2023-02-12T07:09:58;26.50;34.00
15172;DHT22;7686;52.184;9.280;2023-02-12T07:12:25;26.40;34.00
15172;DHT22;7686;52.184;9.280;2023-02-12T07:14:51;26.60;34.10
15172;DHT22;7686;52.184;9.280;2023-02-12T07:17:18;26.50;34.00
15172;DHT22;7686;52.184;9.280;2023-02-12T07:19:44;26.50;34.00
15172;DHT22;7686;52.184;9.280;2023-02-12T07:22:11;26.50;34.10
15172;DHT22;7686;52.184;9.280;2023-02-12T07:24:37;26.50;34.10
15172;DHT22;7686;52.184;9.280;2023-02-12T07:27:04;26.50;34.10
15172;DHT22;7686;52.184;9.280;2023-02-12T07:29:31;26.50;34.10
15172;DHT22;7686;52.184;9.280;2023-02-12T07:31:57;26.60;34.20
15172;DHT22;7686;52.184;9.280;2023-02-12T07:34:24;26.40;34.10
15172;DHT22;7686;52.184;9.280;2023-02-12T07:36:51;26.60;34.20
15172;DHT22;7686;52.184;9.280;2023-02-12T07:39:17;26.60;34.20
15172;DHT22;7686;52.184;9.280;2023-02-12T07:41:44;26.60;34.20
15172;DHT22;7686;52.184;9.280;2023-02-12T07:44:11;26.60;34.20
15172;DHT22;7686;52.184;9.280;2023-02-12T07:46:39;26.60;34.20
15172;DHT22;7686;52.184;9.280;2023-02-12T07:49:09;26.60;34.20
15172;DHT22;7686;52.184;9.280;2023-02-12T07:51:36;26.60;34.10
15172;DHT22;7686;52.184;9.280;2023-02-12T07:54:04;26.70;34.30
15172;DHT22;7686;52.184;9.280;2023-02-12T07:56:33;26.70;34.30
15172;DHT22;7686;52.184;9.280;2023-02-12T07:59:03;26.70;34.20
15172;DHT22;7686;52.184;9.280;2023-02-12T08:01:42;26.70;34.30
15172;DHT22;7686;52.184;9.280;2023-02-12T08:04:12;26.70;34.30
15172;DHT22;7686;52.184;9.280;2023-02-12T08:06:42;26.70;34.20
15172;DHT22;7686;52.184;9.280;2023-02-12T08:09:10;26.70;34.30
15172;DHT22;7686;52.184;9.280;2023-02-12T08:11:39;26.70;34.20
15172;DHT22;7686;52.184;9.280;2023-02-12T08:14:08;26.70;34.20
15172;DHT22;7686;52.184;9.280;2023-02-12T08:16:37;26.70;34.20
15172;DHT22;7686;52.184;9.280;2023-02-12T08:19:04;26.70;34.20
15172;DHT22;7686;52.184;9.280;2023-02-12T08:21:44;26.70;34.20
15172;DHT22;7686;52.184;9.280;2023-02-12T08:24:12;26.70;34.20
15172;DHT22;7686;52.184;9.280;2023-02-12T08:26:39;26.70;34.20
15172;DHT22;7686;52.184;9.280;2023-02-12T08:29:11;26.70;34.10
15172;DHT22;7686;52.184;9.280;2023-02-12T08:31:41;26.70;34.10
15172;DHT22;7686;52.184;9.280;2023-02-12T08:36:46;26.80;34.20
15172;DHT22;7686;52.184;9.280;2023-02-12T08:39:14;26.80;34.20
15172;DHT22;7686;52.184;9.280;2023-02-12T08:41:41;26.80;34.20
15172;DHT22;7686;52.184;9.280;2023-02-12T08:44:08;26.80;34.20
15172;DHT22;7686;52.184;9.280;2023-02-12T08:46:37;26.80;34.20
15172;DHT22;7686;52.184;9.280;2023-02-12T08:49:06;26.80;34.20
15172;DHT22;7686;52.184;9.280;2023-02-12T08:51:35;26.80;34.30
15172;DHT22;7686;52.184;9.280;2023-02-12T08:54:04;26.90;34.30
15172;DHT22;7686;52.184;9.280;2023-02-12T08:56:32;26.90;34.30
15172;DHT22;7686;52.184;9.280;2023-02-12T08:59:01;26.90;34.30
15172;DHT22;7686;52.184;9.280;2023-02-12T09:01:32;26.90;34.40
15172;DHT22;7686;52.184;9.280;2023-02-12T09:04:00;26.90;34.30
15172;DHT22;7686;52.184;9.280;2023-02-12T09:06:27;26.90;34.40
15172;DHT22;7686;52.184;9.280;2023-02-12T09:08:54;27.00;34.40
15172;DHT22;7686;52.184;9.280;2023-02-12T09:11:23;27.00;34.40
15172;DHT22;7686;52.184;9.280;2023-02-12T09:14:01;27.00;34.40
15172;DHT22;7686;52.184;9.280;2023-02-12T09:16:30;27.00;34.50
15172;DHT22;7686;52.184;9.280;2023-02-12T09:18:57;27.00;34.50
15172;DHT22;7686;52.184;9.280;2023-02-12T09:21:24;27.10;34.50
15172;DHT22;7686;52.184;9.280;2023-02-12T09:23:51;27.10;34.60
15172;DHT22;7686;52.184;9.280;2023-02-12T09:26:21;27.10;34.60
15172;DHT22;7686;52.184;9.280;2023-02-12T09:28:49;27.00;34.40
15172;DHT22;7686;52.184;9.280;2023-02-12T09:31:18;27.10;34.40
15172;DHT22;7686;52.184;9.280;2023-02-12T09:33:48;27.20;34.50
15172;DHT22;7686;52.184;9.280;2023-02-12T09:36:20;27.20;34.50
15172;DHT22;7686;52.184;9.280;2023-02-12T09:38:47;27.30;34.50
15172;DHT22;7686;52.184;9.280;2023-02-12T09:44:53;27.20;34.40
15172;DHT22;7686;52.184;9.280;2023-02-12T09:53:17;27.10;34.30
15172;DHT22;7686;52.184;9.280;2023-02-12T09:55:44;27.30;34.30
15172;DHT22;7686;52.184;9.280;2023-02-12T09:58:24;27.30;34.30
15172;DHT22;7686;52.184;9.280;2023-02-12T10:00:53;27.50;34.40
15172;DHT22;7686;52.184;9.280;2023-02-12T10:03:21;27.30;34.20
15172;DHT22;7686;52.184;9.280;2023-02-12T10:06:01;27.40;34.30
15172;DHT22;7686;52.184;9.280;2023-02-12T10:11:29;27.40;34.20
15172;DHT22;7686;52.184;9.280;2023-02-12T10:14:34;27.40;34.20
15172;DHT22;7686;52.184;9.280;2023-02-12T10:17:39;27.40;34.20
15172;DHT22;7686;52.184;9.280;2023-02-12T10:25:50;27.40;34.10
15172;DHT22;7686;52.184;9.280;2023-02-12T10:28:40;27.40;34.10
15172;DHT22;7686;52.184;9.280;2023-02-12T10:31:16;27.40;34.10
15172;DHT22;7686;52.184;9.280;2023-02-12T10:33:47;27.40;34.10
15172;DHT22;7686;52.184;9.280;2023-02-12T10:39:19;27.40;34.10
15172;DHT22;7686;52.184;9.280;2023-02-12T10:42:14;27.40;34.10
15172;DHT22;7686;52.184;9.280;2023-02-12T10:44:41;27.50;34.20
15172;DHT22;7686;52.184;9.280;2023-02-12T10:47:16;27.50;34.20
15172;DHT22;7686;52.184;9.280;2023-02-12T10:49:44;27.50;34.20
15172;DHT22;7686;52.184;9.280;2023-02-12T10:52:33;27.50;34.20
15172;DHT22;7686;52.184;9.280;2023-02-12T10:55:02;27.50;34.20
15172;DHT22;7686;52.184;9.280;2023-02-12T10:57:29;27.50;34.20
15172;DHT22;7686;52.184;9.280;2023-02-12T11:00:14;27.50;34.30
15172;DHT22;7686;52.184;9.280;2023-02-12T11:05:41;27.50;34.20
15172;DHT22;7686;52.184;9.280;2023-02-12T11:08:34;27.50;34.20
15172;DHT22;7686;52.184;9.280;2023-02-12T11:11:04;27.50;34.90
15172;DHT22;7686;52.184;9.280;2023-02-12T11:13:31;27.60;34.20
15172;DHT22;7686;52.184;9.280;2023-02-12T11:15:58;27.50;34.20
15172;DHT22;7686;52.184;9.280;2023-02-12T11:18:29;27.60;34.20
15172;DHT22;7686;52.184;9.280;2023-02-12T11:23:32;27.60;34.30
15172;DHT22;7686;52.184;9.280;2023-02-12T11:26:03;27.60;34.20
15172;DHT22;7686;52.184;9.280;2023-02-12T11:28:32;27.60;34.20
15172;DHT22;7686;52.184;9.280;2023-02-12T11:31:30;27.70;34.20
15172;DHT22;7686;52.184;9.280;2023-02-12T11:34:16;27.60;34.10
15172;DHT22;7686;52.184;9.280;2023-02-12T11:36:47;27.60;34.10
15172;DHT22;7686;52.184;9.280;2023-02-12T11:39:35;27.60;34.10
15172;DHT22;7686;52.184;9.280;2023-02-12T11:42:15;27.60;34.10
15172;DHT22;7686;52.184;9.280;2023-02-12T11:44:48;27.60;34.10
15172;DHT22;7686;52.184;9.280;2023-02-12T11:47:19;27.60;34.10
15172;DHT22;7686;52.184;9.280;2023-02-12T11:50:25;27.60;34.00
15172;DHT22;7686;52.184;9.280;2023-02-12T11:52:58;27.60;34.10
15172;DHT22;7686;52.184;9.280;2023-02-12T11:55:28;27.70;34.10
15172;DHT22;7686;52.184;9.280;2023-02-12T11:58:20;27.60;34.10
15172;DHT22;7686;52.184;9.280;2023-02-12T12:04:08;27.60;34.20
15172;DHT22;7686;52.184;9.280;2023-02-12T12:06:41;27.80;34.30
15172;DHT22;7686;52.184;9.280;2023-02-12T12:09:31;27.70;34.30
15172;DHT22;7686;52.184;9.280;2023-02-12T12:14:47;27.70;34.30
15172;DHT22;7686;52.184;9.280;2023-02-12T12:17:45;27.70;34.30
15172;DHT22;7686;52.184;9.280;2023-02-12T12:20:51;27.70;34.30
15172;DHT22;7686;52.184;9.280;2023-02-12T12:23:33;27.70;34.30
15172;DHT22;7686;52.184;9.280;2023-02-12T12:26:41;27.70;34.30
15172;DHT22;7686;52.184;9.280;2023-02-12T12:29:05;27.70;34.40
15172;DHT22;7686;52.184;9.280;2023-02-12T12:31:48;27.70;34.40
15172;DHT22;7686;52.184;9.280;2023-02-12T12:34:21;27.70;34.40
15172;DHT22;7686;52.184;9.280;2023-02-12T12:57:16;27.70;34.70
15172;DHT22;7686;52.184;9.280;2023-02-12T12:59:40;27.70;34.70
15172;DHT22;7686;52.184;9.280;2023-02-12T13:05:23;27.70;34.70
15172;DHT22;7686;52.184;9.280;2023-02-12T13:08:35;27.70;34.80
15172;DHT22;7686;52.184;9.280;2023-02-12T13:11:27;27.70;34.90
15172;DHT22;7686;52.184;9.280;2023-02-12T13:14:12;27.70;34.70
15172;DHT22;7686;52.184;9.280;2023-02-12T13:19:36;27.70;34.70
15172;DHT22;7686;52.184;9.280;2023-02-12T13:25:17;27.70;34.70
15172;DHT22;7686;52.184;9.280;2023-02-12T13:27:47;27.70;34.70
15172;DHT22;7686;52.184;9.280;2023-02-12T13:33:24;27.70;34.70
15172;DHT22;7686;52.184;9.280;2023-02-12T13:35:56;27.70;34.80
15172;DHT22;7686;52.184;9.280;2023-02-12T13:38:30;27.70;34.70
15172;DHT22;7686;52.184;9.280;2023-02-12T13:41:02;27.70;35.50
15172;DHT22;7686;52.184;9.280;2023-02-12T13:43:38;27.70;34.70
15172;DHT22;7686;52.184;9.280;2023-02-12T13:46:36;27.70;34.80
15172;DHT22;7686;52.184;9.280;2023-02-12T13:49:22;27.70;34.70
15172;DHT22;7686;52.184;9.280;2023-02-12T13:55:01;27.70;34.70
15172;DHT22;7686;52.184;9.280;2023-02-12T13:57:30;27.70;34.70
15172;DHT22;7686;52.184;9.280;2023-02-12T13:59:57;27.60;34.60
15172;DHT22;7686;52.184;9.280;2023-02-12T14:07:51;27.60;34.60
15172;DHT22;7686;52.184;9.280;2023-02-12T14:10:22;27.60;34.60
15172;DHT22;7686;52.184;9.280;2023-02-12T14:12:50;27.60;34.60
15172;DHT22;7686;52.184;9.280;2023-02-12T14:15:27;27.60;35.40
15172;DHT22;7686;52.184;9.280;2023-02-12T14:18:19;27.60;34.60
15172;DHT22;7686;52.184;9.280;2023-02-12T14:20:47;27.60;34.60
15172;DHT22;7686;52.184;9.280;2023-02-12T14:23:23;27.60;34.60
15172;DHT22;7686;52.184;9.280;2023-02-12T14:25:57;27.60;34.60
15172;DHT22;7686;52.184;9.280;2023-02-12T14:31:33;27.60;34.60
15172;DHT22;7686;52.184;9.280;2023-02-12T14:42:40;27.60;34.50
15172;DHT22;7686;52.184;9.280;2023-02-12T14:50:19;27.60;34.60
15172;DHT22;7686;52.184;9.280;2023-02-12T14:53:05;27.60;34.60
15172;DHT22;7686;52.184;9.280;2023-02-12T14:55:33;27.60;34.50
15172;DHT22;7686;52.184;9.280;2023-02-12T14:58:14;27.60;34.50
15172;DHT22;7686;52.184;9.280;2023-02-12T15:00:45;27.60;34.60
15172;DHT22;7686;52.184;9.280;2023-02-12T15:05:46;27.50;34.50
15172;DHT22;7686;52.184;9.280;2023-02-12T15:08:25;27.60;34.60
15172;DHT22;7686;52.184;9.280;2023-02-12T15:14:11;27.50;34.50
15172;DHT22;7686;52.184;9.280;2023-02-12T15:16:43;27.50;34.50
15172;DHT22;7686;52.184;9.280;2023-02-12T15:22:23;27.50;34.50
15172;DHT22;7686;52.184;9.280;2023-02-12T15:24:51;27.50;34.50
15172;DHT22;7686;52.184;9.280;2023-02-12T15:27:18;27.50;34.50
15172;DHT22;7686;52.184;9.280;2023-02-12T15:29:48;27.50;34.50
15172;DHT22;7686;52.184;9.280;2023-02-12T15:32:27;27.50;34.50
15172;DHT22;7686;52.184;9.280;2023-02-12T15:34:55;27.50;34.60
15172;DHT22;7686;52.184;9.280;2023-02-12T15:37:25;27.40;34.50
15172;DHT22;7686;52.184;9.280;2023-02-12T15:39:57;27.50;34.60
15172;DHT22;7686;52.184;9.280;2023-02-12T15:42:34;27.40;34.50
15172;DHT22;7686;52.184;9.280;2023-02-12T15:47:36;27.40;34.50
15172;DHT22;7686;52.184;9.280;2023-02-12T15:50:03;27.50;34.60
15172;DHT22;7686;52.184;9.280;2023-02-12T15:52:34;27.50;34.60
15172;DHT22;7686;52.184;9.280;2023-02-12T15:55:05;27.40;34.50
15172;DHT22;7686;52.184;9.280;2023-02-12T15:57:32;27.40;34.70
15172;DHT22;7686;52.184;9.280;2023-02-12T16:00:27;27.40;34.50
15172;DHT22;7686;52.184;9.280;2023-02-12T16:02:54;27.40;34.50
15172;DHT22;7686;52.184;9.280;2023-02-12T16:05:21;27.40;34.50
15172;DHT22;7686;52.184;9.280;2023-02-12T16:07:48;27.50;34.60
15172;DHT22;7686;52.184;9.280;2023-02-12T16:10:17;27.40;34.50
15172;DHT22;7686;52.184;9.280;2023-02-12T16:12:45;27.40;34.50
15172;DHT22;7686;52.184;9.280;2023-02-12T16:15:30;27.40;34.50
15172;DHT22;7686;52.184;9.280;2023-02-12T16:17:58;27.40;34.50
15172;DHT22;7686;52.184;9.280;2023-02-12T16:20:30;27.40;34.50
15172;DHT22;7686;52.184;9.280;2023-02-12T16:22:57;27.40;34.50
15172;DHT22;7686;52.184;9.280;2023-02-12T16:25:28;27.50;34.60
15172;DHT22;7686;52.184;9.280;2023-02-12T16:28:17;27.40;34.50
15172;DHT22;7686;52.184;9.280;2023-02-12T16:30:47;27.40;34.50
15172;DHT22;7686;52.184;9.280;2023-02-12T16:33:40;27.40;34.50
15172;DHT22;7686;52.184;9.280;2023-02-12T16:38:51;27.40;34.50
15172;DHT22;7686;52.184;9.280;2023-02-12T16:46:20;27.40;34.50
15172;DHT22;7686;52.184;9.280;2023-02-12T16:48:51;27.40;34.90
15172;DHT22;7686;52.184;9.280;2023-02-12T16:51:32;27.40;34.60
15172;DHT22;7686;52.184;9.280;2023-02-12T16:54:01;27.40;34.50
15172;DHT22;7686;52.184;9.280;2023-02-12T16:56:31;27.40;34.50
15172;DHT22;7686;52.184;9.280;2023-02-12T16:59:00;27.40;34.60
15172;DHT22;7686;52.184;9.280;2023-02-12T17:01:33;27.40;34.50
15172;DHT22;7686;52.184;9.280;2023-02-12T17:04:03;27.30;34.50
15172;DHT22;7686;52.184;9.280;2023-02-12T17:06:31;27.30;34.50
15172;DHT22;7686;52.184;9.280;2023-02-12T17:08:58;27.30;34.40
15172;DHT22;7686;52.184;9.280;2023-02-12T17:11:26;27.40;34.50
15172;DHT22;7686;52.184;9.280;2023-02-12T17:13:54;27.30;34.50
15172;DHT22;7686;52.184;9.280;2023-02-12T17:16:21;27.30;34.40
15172;DHT22;7686;52.184;9.280;2023-02-12T17:18:58;27.30;34.50
15172;DHT22;7686;52.184;9.280;2023-02-12T17:21:34;27.40;34.50
15172;DHT22;7686;52.184;9.280;2023-02-12T17:24:23;27.30;34.40
15172;DHT22;7686;52.184;9.280;2023-02-12T17:26:52;27.30;34.40
15172;DHT22;7686;52.184;9.280;2023-02-12T17:29:20;27.30;34.40
15172;DHT22;7686;52.184;9.280;2023-02-12T17:31:48;27.30;34.50
15172;DHT22;7686;52.184;9.280;2023-02-12T17:34:15;27.30;34.50
15172;DHT22;7686;52.184;9.280;2023-02-12T17:36:42;27.30;34.50
15172;DHT22;7686;52.184;9.280;2023-02-12T17:39:11;27.30;34.50
15172;DHT22;7686;52.184;9.280;2023-02-12T17:41:39;27.30;34.50
15172;DHT22;7686;52.184;9.280;2023-02-12T17:44:06;27.30;34.50
15172;DHT22;7686;52.184;9.280;2023-02-12T17:46:33;27.30;34.50
15172;DHT22;7686;52.184;9.280;2023-02-12T17:49:00;27.30;34.50
15172;DHT22;7686;52.184;9.280;2023-02-12T17:51:27;27.40;34.50
15172;DHT22;7686;52.184;9.280;2023-02-12T17:53:54;27.30;34.50
15172;DHT22;7686;52.184;9.280;2023-02-12T17:56:21;27.40;34.50
15172;DHT22;7686;52.184;9.280;2023-02-12T17:58:51;27.20;34.60
15172;DHT22;7686;52.184;9.280;2023-02-12T18:01:20;27.30;34.50
15172;DHT22;7686;52.184;9.280;2023-02-12T18:03:47;27.30;34.50
15172;DHT22;7686;52.184;9.280;2023-02-12T18:06:21;27.30;34.50
15172;DHT22;7686;52.184;9.280;2023-02-12T18:08:48;27.20;34.40
15172;DHT22;7686;52.184;9.280;2023-02-12T18:11:14;27.20;34.40
15172;DHT22;7686;52.184;9.280;2023-02-12T18:13:41;27.30;34.50
15172;DHT22;7686;52.184;9.280;2023-02-12T18:16:08;27.20;34.40
15172;DHT22;7686;52.184;9.280;2023-02-12T18:18:35;27.20;34.40
15172;DHT22;7686;52.184;9.280;2023-02-12T18:21:08;27.20;34.50
15172;DHT22;7686;52.184;9.280;2023-02-12T18:23:34;27.20;34.40
15172;DHT22;7686;52.184;9.280;2023-02-12T18:26:12;27.20;34.40
15172;DHT22;7686;52.184;9.280;2023-02-12T18:28:39;27.20;34.40
15172;DHT22;7686;52.184;9.280;2023-02-12T18:31:06;27.30;34.50
15172;DHT22;7686;52.184;9.280;2023-02-12T18:33:34;27.20;34.40
15172;DHT22;7686;52.184;9.280;2023-02-12T18:36:04;27.20;34.40
15172;DHT22;7686;52.184;9.280;2023-02-12T18:38:32;27.20;34.40
15172;DHT22;7686;52.184;9.280;2023-02-12T18:40:59;27.20;34.50
15172;DHT22;7686;52.184;9.280;2023-02-12T18:43:30;27.20;34.40